Leadville, CO

11:53 AM MDT on July 22, 2017 (GMT -0600)
Lake County

Weather History for KLXV - January, 2014

Change the Weather History Date:

Wednesday, January 1, 2014

  Actual Average Record
Temperature  
Mean Temperature 12 °F -  
Max Temperature 24 °F 29 °F 45 °F (1981)
Min Temperature 0 °F 4 °F -19 °F (1979)
Degree Days  
Heating Degree Days 53 48  
Month to date heating degree days 53 48  
Since 1 July heating degree days 4808 4949  
Cooling Degree Days 0 0  
Month to date cooling degree days 0 0  
Year to date cooling degree days 0 0  
Moisture  
Dew Point 13 °F    
Average Humidity 76    
Maximum Humidity 92    
Minimum Humidity 59    
Precipitation  
Precipitation 0.21 in 0.02 in 0.21 in (2014)
Month to date precipitation 0.21 0.02  
Year to date precipitation 0.21 0.02  
Sea Level Pressure  
Sea Level Pressure 30.09 in    
Wind  
Wind Speed 10 mph (NW)    
Max Wind Speed 23 mph    
Max Gust Speed 36 mph    
Visibility 3 miles    
Events Fog , Snow    
T = Trace of Precipitation, MM = Missing Value Source: NWS Daily Summary

Daily Weather History Graph

Daily Weather History Graph

Search for Another Location

Airport or City:

Trip Planner

Search our weather history database for the weather conditions in past years. The results will help you decide how hot, cold, wet, or windy it might be!

Date:

Astronomy

Jan. 01, 2014 Rise Set
Actual Time 7:24 AM MST 4:53 PM MST
Civil Twilight 6:54 AM MST 5:23 PM MST
Nautical Twilight 6:21 AM MST 5:56 PM MST
Astronomical Twilight 5:48 AM MST 6:29 PM MST
Moon 7:18 AM MST (1/1) 5:40 PM MST (1/1)
Length of Visible Light 10h 28m
Length of Day
9h 28m
New Moon, 0% of the Moon is Illuminated
Jan 1
New Moon
Jan 7
First Quarter
Jan 15
Full
Jan 23
Last Quarter
Jan 30
New

Hourly Weather History & Observations

Time (MST) Temp. Windchill Dew Point Humidity Pressure Visibility Wind Dir Wind Speed Gust Speed Precip Events Conditions
12:24 AM 23.0 °F 10.1 °F 18.0 °F 81% 30.03 in 3.0 mi North 15.0 mph - 0.00 in Snow Light Snow
12:37 AM 23.0 °F 13.1 °F 18.0 °F 81% 30.03 in 2.5 mi North 9.2 mph 24.2 mph 0.01 in Snow Light Snow
12:50 AM 23.0 °F 11.1 °F 19.4 °F 86% 30.02 in 4.0 mi North 12.7 mph - 0.01 in Snow Light Snow
12:53 AM 23.0 °F 11.1 °F 19.0 °F 85% 29.89 in 5.0 mi North 12.7 mph - 0.01 in Snow Light Snow
1:38 AM 24.1 °F 12.5 °F 19.0 °F 81% 30.00 in 1.8 mi NW 12.7 mph 23.0 mph 0.00 in Snow Light Snow
1:53 AM 23.0 °F 12.4 °F 19.0 °F 85% 29.89 in 2.0 mi NNW 10.4 mph 19.6 mph 0.01 in Snow Light Snow
2:02 AM 23.0 °F 12.4 °F 19.0 °F 85% 30.00 in 1.5 mi NNW 10.4 mph 24.2 mph 0.00 in Snow Light Snow
2:24 AM 23.0 °F 10.6 °F 18.0 °F 81% 30.00 in 3.0 mi NW 13.8 mph 20.7 mph 0.00 in Snow Light Snow
2:34 AM 23.0 °F 11.7 °F 18.0 °F 81% 29.99 in 2.5 mi NNW 11.5 mph - 0.00 in Snow Light Snow
2:53 AM 21.9 °F 12.5 °F 19.0 °F 89% 29.86 in 1.2 mi NW 8.1 mph 18.4 mph 0.00 in Snow Light Snow
3:11 AM 21.9 °F 10.4 °F 19.0 °F 89% 29.98 in 3.0 mi NNW 11.5 mph - 0.01 in Snow Light Snow
3:24 AM 23.0 °F 11.1 °F 18.0 °F 81% 29.98 in 5.0 mi NW 12.7 mph 17.3 mph 0.01 in Snow Light Snow
3:46 AM 23.0 °F 9.2 °F 18.0 °F 81% 29.99 in 2.5 mi NW 17.3 mph 28.8 mph 0.01 in Snow Light Snow
3:53 AM 21.9 °F 10.4 °F 19.0 °F 89% 29.88 in 0.8 mi NNW 11.5 mph 28.8 mph 0.01 in Snow Light Snow
4:06 AM 21.9 °F 10.4 °F 19.0 °F 89% 29.99 in 0.5 mi NW 11.5 mph - 0.01 in Fog , Snow Snow
4:15 AM 21.0 °F 9.3 °F 19.0 °F 92% 30.00 in 0.5 mi NNW 11.5 mph - 0.02 in Fog , Snow Snow
4:30 AM 21.0 °F 6.6 °F 19.0 °F 92% 30.00 in 0.2 mi WNW 17.3 mph 25.3 mph 0.04 in Fog , Snow Heavy Snow
4:43 AM 21.0 °F 6.6 °F 18.0 °F 88% 30.01 in 0.2 mi NW 17.3 mph 26.5 mph 0.05 in Fog , Snow Heavy Snow
4:50 AM 21.2 °F 9.5 °F 17.6 °F 86% 30.01 in 0.5 mi WNW 11.5 mph 24.2 mph 0.05 in Fog , Snow Snow
4:53 AM 19.9 °F 7.3 °F 18.0 °F 92% 29.92 in 0.5 mi NW 12.7 mph - 0.06 in Fog , Snow Snow
5:10 AM 19.9 °F 7.3 °F 18.0 °F 92% 30.02 in 1.0 mi NNW 12.7 mph - 0.03 in Snow Light Snow
5:23 AM 19.9 °F 3.9 °F 15.1 °F 81% 30.01 in 1.5 mi WNW 20.7 mph 35.7 mph 0.03 in Snow Light Snow
5:48 AM 19.4 °F 6.0 °F 15.8 °F 86% 30.03 in 0.8 mi NW 13.8 mph 23.0 mph 0.03 in Snow Light Snow
5:53 AM 19.0 °F 6.8 °F 16.0 °F 88% 29.94 in 0.8 mi NW 11.5 mph 23.0 mph 0.04 in Snow Light Snow
5:57 AM 19.0 °F 7.5 °F 16.0 °F 88% 30.03 in 1.0 mi WNW 10.4 mph 21.9 mph 0.00 in Snow Light Snow
6:12 AM 19.9 °F 5.7 °F 15.1 °F 81% 30.04 in 3.0 mi WNW 16.1 mph 21.9 mph 0.00 in Snow Light Snow
6:34 AM 19.0 °F 4.0 °F 14.0 °F 81% 30.05 in 1.8 mi WNW 17.3 mph 23.0 mph 0.00 in Snow Light Snow
6:53 AM 19.0 °F 5.0 °F 15.1 °F 85% 29.99 in 1.2 mi WNW 15.0 mph 25.3 mph 0.00 in Snow Light Snow
7:09 AM 18.0 °F 6.1 °F 14.0 °F 84% 30.06 in 2.0 mi WNW 10.4 mph - 0.01 in Snow Light Snow
7:17 AM 18.0 °F 6.9 °F 14.0 °F 84% 30.07 in 1.2 mi NW 9.2 mph 18.4 mph 0.01 in Snow Light Snow
7:45 AM 18.0 °F 7.7 °F 12.9 °F 81% 30.08 in 1.8 mi NW 8.1 mph 18.4 mph 0.02 in Snow Light Snow
7:53 AM 18.0 °F 6.9 °F 14.0 °F 84% 30.03 in 1.2 mi NW 9.2 mph 17.3 mph 0.02 in Snow Light Snow
8:05 AM 18.0 °F 5.4 °F 14.0 °F 84% 30.09 in 1.2 mi NW 11.5 mph - 0.00 in Snow Light Snow
8:22 AM 17.1 °F 5.8 °F 14.0 °F 88% 30.10 in 0.5 mi NNW 9.2 mph - 0.00 in Fog , Snow Snow
8:51 AM 17.6 °F 7.3 °F 14.0 °F 86% 30.12 in 0.2 mi NW 8.1 mph - 0.02 in Fog , Snow Snow
8:53 AM 17.1 °F 5.0 °F 14.0 °F 88% 30.09 in 0.2 mi WNW 10.4 mph - 0.02 in Fog , Snow Snow
9:27 AM 17.1 °F 6.6 °F 12.9 °F 84% 30.13 in 0.5 mi WNW 8.1 mph - 0.03 in Fog , Snow Snow
9:42 AM 18.0 °F 6.9 °F 14.0 °F 84% 30.14 in 0.5 mi NW 9.2 mph - 0.03 in Fog , Snow Snow
9:53 AM 18.0 °F 4.2 °F 12.0 °F 78% 30.09 in 1.0 mi WNW 13.8 mph 20.7 mph 0.03 in Snow Light Snow
10:04 AM 17.1 °F 3.6 °F 12.0 °F 81% 30.14 in 1.0 mi WNW 12.7 mph 19.6 mph 0.00 in Snow Light Snow
10:53 AM 19.0 °F 10.0 °F 10.0 °F 68% 30.09 in 2.5 mi NNW 6.9 mph 23.0 mph 0.00 in Snow Light Snow
11:01 AM 19.0 °F 6.1 °F 10.0 °F 68% 30.15 in 5.0 mi WNW 12.7 mph 17.3 mph 0.00 in Snow Light Snow
11:27 AM 19.0 °F 6.1 °F 10.0 °F 68% 30.14 in 9.0 mi NW 12.7 mph - 0.00 in Snow Light Snow
11:53 AM 19.0 °F 4.5 °F 9.0 °F 65% 30.09 in 5.0 mi WNW 16.1 mph 21.9 mph 0.00 in Snow Light Snow
12:16 PM 19.0 °F 7.5 °F 10.0 °F 68% 30.13 in 4.0 mi WNW 10.4 mph - 0.00 in Snow Light Snow
12:53 PM 19.0 °F 4.5 °F 10.0 °F 68% 30.07 in 4.0 mi WNW 16.1 mph - 0.00 in Snow Light Snow
1:03 PM 19.9 °F 8.6 °F 10.9 °F 68% 30.12 in 2.0 mi NNW 10.4 mph 19.6 mph 0.00 in Snow Light Snow
1:12 PM 19.9 °F 10.1 °F 10.9 °F 68% 30.12 in 5.0 mi NW 8.1 mph - 0.00 in Snow Light Snow
1:51 PM 19.4 °F 6.0 °F 10.4 °F 68% 30.12 in 8.0 mi NW 13.8 mph 24.2 mph 0.00 in   Overcast
1:53 PM 19.9 °F 6.2 °F 10.0 °F 65% 30.06 in 9.0 mi NW 15.0 mph 24.2 mph 0.00 in   Overcast
2:22 PM 19.0 °F 5.0 °F 10.9 °F 71% 30.13 in 1.8 mi NW 15.0 mph - 0.00 in Snow Light Snow
2:36 PM 19.0 °F 6.1 °F 10.0 °F 68% 30.13 in 2.0 mi NW 12.7 mph 25.3 mph 0.00 in Snow Light Snow
2:45 PM 18.0 °F 2.2 °F 10.9 °F 74% 30.14 in 1.2 mi WNW 18.4 mph 26.5 mph 0.00 in Snow Light Snow
2:53 PM 18.0 °F 5.4 °F 10.9 °F 74% 30.11 in 1.0 mi NW 11.5 mph 20.7 mph 0.00 in Snow Light Snow
3:11 PM 19.0 °F 6.8 °F 10.9 °F 71% 30.15 in 2.5 mi WNW 11.5 mph - 0.00 in Snow Light Snow
3:18 PM 19.0 °F 9.0 °F 10.9 °F 71% 30.15 in 3.0 mi WNW 8.1 mph - 0.00 in Snow Light Snow
3:30 PM 19.0 °F 7.5 °F 12.0 °F 74% 30.16 in 1.8 mi NW 10.4 mph 17.3 mph 0.00 in Snow Light Snow
3:53 PM 18.0 °F 7.7 °F 12.0 °F 78% 30.14 in 1.0 mi NW 8.1 mph 17.3 mph 0.01 in Snow Light Snow
4:38 PM 18.0 °F 6.1 °F 10.9 °F 74% 30.18 in 3.0 mi NW 10.4 mph 20.7 mph 0.00 in Snow Light Snow
4:49 PM 17.6 °F 5.7 °F 10.4 °F 73% 30.19 in 2.5 mi NW 10.4 mph - 0.00 in Snow Light Snow
4:53 PM 18.0 °F 6.9 °F 10.9 °F 74% 30.17 in 3.0 mi NW 9.2 mph - 0.00 in Snow Light Snow
5:26 PM 18.0 °F 8.7 °F 9.0 °F 68% 30.20 in 10.0 mi NNW 6.9 mph - 0.00 in   Overcast
5:53 PM 17.1 °F 5.0 °F 7.0 °F 65% 30.21 in 10.0 mi NNW 10.4 mph 19.6 mph 0.00 in   Overcast
6:53 PM 16.0 °F 1.7 °F 6.1 °F 65% 30.23 in 10.0 mi NNW 13.8 mph 21.9 mph N/A   Overcast
7:20 PM 15.1 °F 0.5 °F 5.0 °F 64% 30.24 in 10.0 mi NNW 13.8 mph 20.7 mph N/A   Mostly Cloudy
7:31 PM 15.1 °F -0.1 °F 5.0 °F 64% 30.24 in 10.0 mi NW 15.0 mph 21.9 mph N/A   Scattered Clouds
7:53 PM 15.1 °F -0.1 °F 3.9 °F 61% 30.26 in 10.0 mi WNW 15.0 mph 21.9 mph N/A   Clear
8:53 PM 6.1 °F - 1.0 °F 80% 30.34 in 10.0 mi Calm Calm - N/A   Clear
9:53 PM 1.9 °F -5.6 °F -2.9 °F 80% 30.38 in 10.0 mi North 3.5 mph - N/A   Clear
10:53 PM 9.0 °F 0.6 °F -0.0 °F 67% 30.34 in 10.0 mi Variable 4.6 mph - N/A   Clear
11:53 PM 10.0 °F - 1.0 °F 67% 30.34 in 10.0 mi Calm Calm - N/A   Clear